Cookies

¿Aceptas nuestras cookies?

Aceptar
VAM | Vabird-VBD

Virtual Vabird! Aerolínea Virtual de habla hispana, desde 2011




 INFORMACIÓN METAR y TAF
METAR FOR TNCM
ADDS - METARS form results

(1407 UTC 03 December 2021)
Data provider http://aviationweather.gov/metar/data/
 
METAR text: TNCM 031400Z 10007KT 060V120 9999 FEW018 30/24 Q1017 NOSIG
Conditions at: TNCM (ST MAARTEN JULIA, SX) observed 1400 UTC 03 December 2021
Temperature: 30.0°C (86°F)
Dewpoint: 24.0°C (75°F) [RH = 70%]
Pressure (altimeter): 30.03 inches Hg (1017.0 mb)
Winds: from the E (100 degrees) at 8 MPH (7 knots; 3.6 m/s)
Visibility: 6 or more miles (10+ km)
Ceiling: at least 12,000 feet AGL
Clouds: few clouds at 1800 feet AGL
Weather: no significant weather observed at this time

Forecast for: TNCM (ST MAARTEN JULIA, SX)
Text: TNCM 031139Z 0312/0412 09009KT P6SM FEW018 SCT020
Forecast period: 1200 UTC 03 December 2021 to 1200 UTC 04 December 2021
Forecast type: FROM: standard forecast or significant change
Winds: from the E (90 degrees) at 10 MPH (9 knots; 4.6 m/s)
Visibility: 6 or more miles (10+ km)
Ceiling: at least 12,000 feet AGL
Clouds: few clouds at 1800 feet AGL
scattered clouds at 2000 feet AGL
Weather: no significant weather forecast for this period

 MAPA DE AEROPUERTO

 INFORMACIÓN DE PISTA